createdAt,value
2022-08-09T00:01:42.854Z,15.41
2022-08-09T00:04:33.726Z,15.42
2022-08-09T00:07:07.786Z,15.41
2022-08-09T00:09:39.859Z,15.40
2022-08-09T00:12:15.415Z,15.39
2022-08-09T00:14:52.795Z,15.41
2022-08-09T00:18:05.709Z,15.41
2022-08-09T00:20:13.649Z,15.42
2022-08-09T00:22:47.040Z,15.42
2022-08-09T00:25:23.498Z,15.44
2022-08-09T00:28:01.216Z,15.45
2022-08-09T00:30:33.732Z,15.46
2022-08-09T00:33:01.865Z,15.44
2022-08-09T00:35:30.027Z,15.43
2022-08-09T00:38:16.328Z,15.43
2022-08-09T00:40:53.169Z,15.43
2022-08-09T00:44:27.383Z,15.42
2022-08-09T00:46:11.121Z,15.41
2022-08-09T00:48:56.766Z,15.41
2022-08-09T00:51:28.363Z,15.41
2022-08-09T00:54:03.167Z,15.42
2022-08-09T00:56:31.204Z,15.42
2022-08-09T00:58:59.563Z,15.42
2022-08-09T01:01:44.640Z,15.41
2022-08-09T01:04:17.452Z,15.40
2022-08-09T01:07:12.369Z,15.39
2022-08-09T01:10:07.213Z,15.36
2022-08-09T01:12:50.819Z,15.34
2022-08-09T01:15:25.925Z,15.32
2022-08-09T01:18:08.463Z,15.29
2022-08-09T01:21:00.428Z,15.27
2022-08-09T01:24:01.748Z,15.25
2022-08-09T01:27:07.888Z,15.24
2022-08-09T01:29:55.787Z,15.23
2022-08-09T01:32:44.026Z,15.22
2022-08-09T01:35:38.028Z,15.21
2022-08-09T01:38:15.505Z,15.20
2022-08-09T01:41:17.145Z,15.21
2022-08-09T01:43:51.964Z,15.21
2022-08-09T01:46:26.845Z,15.23
2022-08-09T01:49:10.297Z,15.24
2022-08-09T01:51:54.446Z,15.25
2022-08-09T01:54:46.549Z,15.25
2022-08-09T01:57:20.495Z,15.25
2022-08-09T01:59:53.202Z,15.24
2022-08-09T02:02:32.704Z,15.24
2022-08-09T02:05:15.218Z,15.22
2022-08-09T02:08:35.943Z,15.21
2022-08-09T02:10:51.193Z,15.21
2022-08-09T02:13:26.086Z,15.22
2022-08-09T02:16:11.533Z,15.22
2022-08-09T02:18:42.799Z,15.23
2022-08-09T02:21:17.148Z,15.23
2022-08-09T02:23:54.844Z,15.24
2022-08-09T02:26:28.493Z,15.25
2022-08-09T02:29:02.138Z,15.27
2022-08-09T02:31:38.355Z,15.28
2022-08-09T02:34:40.078Z,15.30
2022-08-09T02:37:09.538Z,15.30
2022-08-09T02:39:49.748Z,15.31
2022-08-09T02:42:28.495Z,15.32
2022-08-09T02:45:03.153Z,15.32
2022-08-09T02:47:57.771Z,15.32
2022-08-09T02:50:27.046Z,15.33
2022-08-09T02:53:01.568Z,15.33
2022-08-09T02:55:46.658Z,15.33
2022-08-09T02:58:35.845Z,15.32
2022-08-09T03:01:08.140Z,15.31
2022-08-09T03:04:18.133Z,15.28
2022-08-09T03:06:29.781Z,15.26
2022-08-09T03:08:59.531Z,15.25
2022-08-09T03:11:29.655Z,15.27
2022-08-09T03:14:18.681Z,15.28
2022-08-09T03:16:50.082Z,15.29
2022-08-09T03:19:52.361Z,15.30
2022-08-09T03:22:12.234Z,15.32
2022-08-09T03:25:00.234Z,15.35
2022-08-09T03:27:45.054Z,15.37
2022-08-09T03:30:33.611Z,15.39
2022-08-09T03:33:17.957Z,15.40
2022-08-09T03:36:15.743Z,15.41
2022-08-09T03:38:41.689Z,15.42
2022-08-09T03:41:15.289Z,15.42
2022-08-09T03:43:51.855Z,15.41
2022-08-09T03:46:35.046Z,15.40
2022-08-09T03:49:08.957Z,15.41
2022-08-09T03:51:56.727Z,15.43
2022-08-09T03:54:31.764Z,15.45
2022-08-09T03:57:17.971Z,15.47
2022-08-09T03:59:53.405Z,15.52
2022-08-09T04:02:29.460Z,15.56
2022-08-09T04:05:00.953Z,15.59
2022-08-09T04:07:47.478Z,15.62
2022-08-09T04:10:21.008Z,15.66
2022-08-09T04:13:04.213Z,15.70
2022-08-09T04:15:52.207Z,15.73
2022-08-09T04:18:22.000Z,15.75
2022-08-09T04:20:51.485Z,15.77
2022-08-09T04:23:23.379Z,15.79
2022-08-09T04:25:54.837Z,15.82
2022-08-09T04:28:34.264Z,15.84
2022-08-09T04:31:09.037Z,15.87
2022-08-09T04:33:51.484Z,15.89
2022-08-09T04:36:25.138Z,15.91
2022-08-09T04:38:59.982Z,15.94
2022-08-09T04:41:33.220Z,15.95
2022-08-09T04:44:11.054Z,15.98
2022-08-09T04:46:59.010Z,16.00
2022-08-09T04:49:52.144Z,16.02
2022-08-09T04:52:27.039Z,16.06
2022-08-09T04:54:57.968Z,16.08
2022-08-09T04:57:53.943Z,16.11
2022-08-09T05:00:16.937Z,16.16
2022-08-09T05:02:48.531Z,16.19
2022-08-09T05:05:32.353Z,16.24
2022-08-09T05:08:14.055Z,16.27
2022-08-09T05:10:43.791Z,16.30
2022-08-09T05:13:12.947Z,16.35
2022-08-09T05:15:47.913Z,16.38
2022-08-09T05:18:38.483Z,16.42
2022-08-09T05:21:13.521Z,16.46
2022-08-09T05:23:58.412Z,16.49
2022-08-09T05:26:45.442Z,16.51
2022-08-09T05:29:21.661Z,16.55
2022-08-09T05:31:57.170Z,16.58
2022-08-09T05:34:31.012Z,16.61
2022-08-09T05:37:06.429Z,16.64
2022-08-09T05:39:43.491Z,16.66
2022-08-09T05:42:20.592Z,16.69
2022-08-09T05:44:55.070Z,16.72
2022-08-09T05:47:27.295Z,16.75
2022-08-09T05:50:25.297Z,16.79
2022-08-09T05:52:53.670Z,16.83
2022-08-09T05:55:23.918Z,16.85
2022-08-09T05:57:56.420Z,16.87
2022-08-09T06:00:29.061Z,16.89
2022-08-09T06:02:59.640Z,16.93
2022-08-09T06:05:49.894Z,16.97
2022-08-09T06:08:19.864Z,17.02
2022-08-09T06:10:53.760Z,17.08
2022-08-09T06:13:22.189Z,17.14
2022-08-09T06:15:52.271Z,17.20
2022-08-09T06:18:25.417Z,17.27
2022-08-09T06:20:57.569Z,17.33
2022-08-09T06:23:55.355Z,17.41
2022-08-09T06:26:21.113Z,17.49
2022-08-09T06:29:00.524Z,17.56
2022-08-09T06:31:30.714Z,17.65
2022-08-09T06:33:59.971Z,17.75
2022-08-09T06:36:29.812Z,17.84
2022-08-09T06:38:58.209Z,17.90
2022-08-09T06:42:01.208Z,17.96
2022-08-09T06:44:18.008Z,18.07
2022-08-09T06:46:48.508Z,18.16
2022-08-09T06:49:44.624Z,18.26
2022-08-09T06:52:15.959Z,18.39
2022-08-09T06:54:44.465Z,18.46
2022-08-09T06:57:13.489Z,18.56
2022-08-09T07:00:52.109Z,18.67
2022-08-09T07:02:31.705Z,18.77
2022-08-09T07:05:01.061Z,18.85
2022-08-09T07:07:59.801Z,18.91
2022-08-09T07:10:29.545Z,18.99
2022-08-09T07:13:00.290Z,19.10
2022-08-09T07:16:38.932Z,19.25
2022-08-09T07:18:35.208Z,19.54
2022-08-09T07:21:08.020Z,19.79
2022-08-09T07:23:56.250Z,20.02
2022-08-09T07:26:26.342Z,20.25
2022-08-09T07:29:09.328Z,20.42
2022-08-09T07:31:45.212Z,20.55
2022-08-09T07:34:20.404Z,20.70
2022-08-09T07:36:49.986Z,20.92
2022-08-09T07:39:20.421Z,21.11
2022-08-09T07:42:07.294Z,21.26
2022-08-09T07:44:53.272Z,21.29
2022-08-09T07:47:23.231Z,21.33
2022-08-09T07:50:05.335Z,21.41
2022-08-09T07:52:38.282Z,21.52
2022-08-09T07:55:09.984Z,21.62
2022-08-09T07:57:47.325Z,21.66
2022-08-09T08:00:20.222Z,21.70
2022-08-09T08:03:08.033Z,21.75
2022-08-09T08:05:54.107Z,21.80
2022-08-09T08:09:00.215Z,21.88
2022-08-09T08:12:10.857Z,21.93
2022-08-09T08:14:02.387Z,21.92
2022-08-09T08:16:32.461Z,21.90
2022-08-09T08:19:02.968Z,21.91
2022-08-09T08:21:31.509Z,21.93
2022-08-09T08:24:00.948Z,21.99
2022-08-09T08:26:55.277Z,22.04
2022-08-09T08:29:20.455Z,22.13
2022-08-09T08:32:03.219Z,22.15
2022-08-09T08:34:36.484Z,22.09
2022-08-09T08:37:05.445Z,22.11
2022-08-09T08:39:39.742Z,22.14
2022-08-09T08:42:14.231Z,22.19
2022-08-09T08:44:46.381Z,22.25
2022-08-09T08:47:16.014Z,22.29
2022-08-09T08:49:48.439Z,22.41
2022-08-09T08:52:57.795Z,22.52
2022-08-09T08:55:09.206Z,22.63
2022-08-09T08:57:38.025Z,22.71
2022-08-09T09:00:20.392Z,22.76
2022-08-09T09:02:53.464Z,22.74
2022-08-09T09:05:57.681Z,22.70
2022-08-09T09:08:30.223Z,22.62
2022-08-09T09:11:04.073Z,22.66
2022-08-09T09:13:47.452Z,22.77
2022-08-09T09:16:33.584Z,22.87
2022-08-09T09:19:37.149Z,23.03
2022-08-09T09:22:11.720Z,23.25
2022-08-09T09:24:43.197Z,23.39
2022-08-09T09:28:03.972Z,23.51
2022-08-09T09:30:28.747Z,23.70
2022-08-09T09:33:14.256Z,23.91
2022-08-09T09:36:00.611Z,24.11
2022-08-09T09:38:44.940Z,24.19
2022-08-09T09:41:32.678Z,24.09
2022-08-09T09:44:12.055Z,24.00
2022-08-09T09:46:46.167Z,23.86
2022-08-09T09:49:32.091Z,23.79
2022-08-09T09:52:33.367Z,23.81
2022-08-09T09:55:28.708Z,23.86
2022-08-09T09:58:03.291Z,23.87
2022-08-09T10:00:33.811Z,23.88
2022-08-09T10:03:11.420Z,23.89
2022-08-09T10:06:04.995Z,23.85
2022-08-09T10:08:42.387Z,23.87
2022-08-09T10:14:37.400Z,23.95
2022-08-09T10:17:40.559Z,23.94
2022-08-09T10:20:35.452Z,24.00
2022-08-09T10:23:20.060Z,23.94
2022-08-09T10:26:07.112Z,23.80
2022-08-09T10:28:40.882Z,23.85
2022-08-09T10:34:09.087Z,24.02
2022-08-09T10:36:50.318Z,24.10
2022-08-09T10:39:19.641Z,24.12
2022-08-09T10:41:48.330Z,24.01
2022-08-09T10:44:23.135Z,24.04
2022-08-09T10:48:10.121Z,24.07
2022-08-09T10:50:31.276Z,24.09
2022-08-09T10:53:11.439Z,24.03
2022-08-09T10:55:58.585Z,23.86
2022-08-09T10:58:33.905Z,23.78
2022-08-09T11:03:03.119Z,23.78
2022-08-09T11:04:20.133Z,23.78
2022-08-09T11:06:58.029Z,23.74
2022-08-09T11:09:47.717Z,23.55
2022-08-09T11:12:17.636Z,23.39
2022-08-09T11:14:57.563Z,23.17
2022-08-09T11:17:26.630Z,23.01
2022-08-09T11:20:12.649Z,22.98
2022-08-09T11:22:55.489Z,22.94
2022-08-09T11:25:45.052Z,22.84
2022-08-09T11:28:34.644Z,22.75
2022-08-09T11:31:49.976Z,22.81
2022-08-09T11:34:42.897Z,22.87
2022-08-09T11:37:31.202Z,22.89
2022-08-09T11:40:14.103Z,23.03
2022-08-09T11:42:51.932Z,22.99
2022-08-09T11:45:23.244Z,22.93
2022-08-09T11:48:08.210Z,22.82
2022-08-09T11:52:48.718Z,22.63
2022-08-09T11:53:59.497Z,22.51
2022-08-09T11:56:41.726Z,22.41
2022-08-09T11:59:29.865Z,22.44
2022-08-09T12:02:18.306Z,22.47
2022-08-09T12:04:57.976Z,22.55
2022-08-09T12:07:29.029Z,22.52
2022-08-09T12:10:32.011Z,22.61
2022-08-09T12:13:03.709Z,22.81
2022-08-09T12:15:52.109Z,22.96
2022-08-09T12:18:29.546Z,22.90
2022-08-09T12:21:02.506Z,22.84
2022-08-09T12:23:56.453Z,22.80
2022-08-09T12:26:26.065Z,22.69
2022-08-09T12:29:11.902Z,22.55
2022-08-09T12:31:58.763Z,22.70
2022-08-09T12:34:40.010Z,22.84
2022-08-09T12:37:23.941Z,22.97
2022-08-09T12:40:12.897Z,23.07
2022-08-09T12:42:45.046Z,22.96
2022-08-09T12:45:34.873Z,22.83
2022-08-09T12:48:04.455Z,22.85
2022-08-09T12:50:35.951Z,22.78
2022-08-09T12:53:08.549Z,22.66
2022-08-09T12:56:15.384Z,22.49
2022-08-09T12:58:27.250Z,22.40
2022-08-09T13:00:57.679Z,22.36
2022-08-09T13:03:54.035Z,22.28
2022-08-09T13:06:37.131Z,22.18
2022-08-09T13:09:07.103Z,22.06
2022-08-09T13:11:39.209Z,21.97
2022-08-09T13:14:40.732Z,21.96
2022-08-09T13:17:05.564Z,21.92
2022-08-09T13:20:07.225Z,21.90
2022-08-09T13:22:36.846Z,21.85
2022-08-09T13:25:14.964Z,21.82
2022-08-09T13:27:54.422Z,21.79
2022-08-09T13:30:50.819Z,21.76
2022-08-09T13:33:23.526Z,21.78
2022-08-09T13:36:24.468Z,21.81
2022-08-09T13:38:55.996Z,21.83
2022-08-09T13:41:59.160Z,21.84
2022-08-09T13:44:16.906Z,21.86
2022-08-09T13:47:29.130Z,21.89
2022-08-09T13:49:39.485Z,21.90
2022-08-09T13:52:24.539Z,21.89
2022-08-09T13:55:00.249Z,21.86
2022-08-09T13:57:39.682Z,21.84
2022-08-09T14:00:13.877Z,21.82
2022-08-09T14:03:16.947Z,21.83
2022-08-09T14:06:01.413Z,21.84
2022-08-09T14:08:23.773Z,21.82
2022-08-09T14:10:55.244Z,21.81
2022-08-09T14:14:15.152Z,21.79
2022-08-09T14:16:17.306Z,21.76
2022-08-09T14:18:50.599Z,21.73
2022-08-09T14:21:23.093Z,21.71
2022-08-09T14:23:55.108Z,21.70
2022-08-09T14:26:31.854Z,21.66
2022-08-09T14:29:08.043Z,21.62
2022-08-09T14:31:55.176Z,21.56
2022-08-09T14:34:31.497Z,21.55
2022-08-09T14:37:07.926Z,21.55
2022-08-09T14:39:46.575Z,21.53
2022-08-09T14:42:30.503Z,21.51
2022-08-09T14:46:38.894Z,21.48
2022-08-09T14:47:58.370Z,21.41
2022-08-09T14:50:31.483Z,21.36
2022-08-09T14:53:11.354Z,21.33
2022-08-09T14:55:49.900Z,21.27
2022-08-09T14:58:19.693Z,21.23
2022-08-09T15:00:48.217Z,21.19
2022-08-09T15:03:20.110Z,21.15
2022-08-09T15:05:52.452Z,21.12
2022-08-09T15:08:24.188Z,21.12
2022-08-09T15:11:00.407Z,21.11
2022-08-09T15:13:48.622Z,21.08
2022-08-09T15:16:18.416Z,21.03
2022-08-09T15:18:49.163Z,20.99
2022-08-09T15:22:01.156Z,20.96
2022-08-09T15:24:12.603Z,20.93
2022-08-09T15:26:45.986Z,20.90
2022-08-09T15:30:48.767Z,20.90
2022-08-09T15:32:04.847Z,20.90
2022-08-09T15:34:35.387Z,20.89
2022-08-09T15:37:37.772Z,20.85
2022-08-09T15:40:16.390Z,20.80
2022-08-09T15:42:50.087Z,20.78
2022-08-09T15:45:21.568Z,20.77
2022-08-09T15:48:01.906Z,20.76
2022-08-09T15:50:39.087Z,20.75
2022-08-09T15:54:02.246Z,20.74
2022-08-09T15:56:21.694Z,20.75
2022-08-09T15:58:43.991Z,20.74
2022-08-09T16:01:14.779Z,20.73
2022-08-09T16:03:43.191Z,20.70
2022-08-09T16:06:16.144Z,20.67
2022-08-09T16:09:01.091Z,20.65
2022-08-09T16:11:33.311Z,20.63
2022-08-09T16:14:06.957Z,20.60
2022-08-09T16:16:45.758Z,20.58
2022-08-09T16:19:16.771Z,20.54
2022-08-09T16:21:48.688Z,20.51
2022-08-09T16:24:32.947Z,20.49
2022-08-09T16:27:05.051Z,20.47
2022-08-09T16:29:37.647Z,20.45
2022-08-09T16:32:18.560Z,20.44
2022-08-09T16:34:57.966Z,20.42
2022-08-09T16:37:53.921Z,20.38
2022-08-09T16:40:20.463Z,20.34
2022-08-09T16:42:59.941Z,20.27
2022-08-09T16:45:30.611Z,20.22
2022-08-09T16:48:41.365Z,20.18
2022-08-09T16:50:59.089Z,20.13
2022-08-09T16:53:33.828Z,20.09
2022-08-09T16:56:09.750Z,20.05
2022-08-09T16:58:42.601Z,20.02
2022-08-09T17:01:19.485Z,19.99
2022-08-09T17:03:53.744Z,19.96
2022-08-09T17:06:31.413Z,19.92
2022-08-09T17:09:13.589Z,19.88
2022-08-09T17:11:52.621Z,19.83
2022-08-09T17:14:27.646Z,19.79
2022-08-09T17:17:01.676Z,19.76
2022-08-09T17:20:05.074Z,19.72
2022-08-09T17:22:28.801Z,19.68
2022-08-09T17:25:10.300Z,19.63
2022-08-09T17:27:48.889Z,19.58
2022-08-09T17:30:20.406Z,19.55
2022-08-09T17:32:48.597Z,19.51
2022-08-09T17:35:16.891Z,19.47
2022-08-09T17:38:02.656Z,19.43
2022-08-09T17:40:35.328Z,19.38
2022-08-09T17:43:32.819Z,19.35
2022-08-09T17:46:04.389Z,19.30
2022-08-09T17:48:51.949Z,19.26
2022-08-09T17:51:21.754Z,19.21
2022-08-09T17:53:54.585Z,19.17
2022-08-09T17:56:35.689Z,19.14
2022-08-09T17:59:09.467Z,19.08
2022-08-09T18:02:07.937Z,19.04
2022-08-09T18:04:29.841Z,18.98
2022-08-09T18:06:59.226Z,18.93
2022-08-09T18:09:40.594Z,18.89
2022-08-09T18:12:19.440Z,18.84
2022-08-09T18:14:54.469Z,18.79
2022-08-09T18:18:00.949Z,18.74
2022-08-09T18:20:57.915Z,18.68
2022-08-09T18:23:05.756Z,18.62
2022-08-09T18:25:50.016Z,18.56
2022-08-09T18:30:40.106Z,18.52
2022-08-09T18:31:07.700Z,18.44
2022-08-09T18:33:36.488Z,18.38
2022-08-09T18:36:04.836Z,18.33
2022-08-09T18:38:32.792Z,18.29
2022-08-09T18:41:00.817Z,18.24
2022-08-09T18:43:28.968Z,18.20
2022-08-09T18:46:48.661Z,18.17
2022-08-09T18:48:53.574Z,18.12
2022-08-09T18:51:38.115Z,18.08
2022-08-09T18:54:20.093Z,18.03
2022-08-09T18:57:06.466Z,17.98
2022-08-09T18:59:48.451Z,17.93
2022-08-09T19:02:18.598Z,17.90
2022-08-09T19:05:04.176Z,17.85
2022-08-09T19:07:35.824Z,17.79
2022-08-09T19:10:17.128Z,17.75
2022-08-09T19:12:52.930Z,17.69
2022-08-09T19:15:29.938Z,17.63
2022-08-09T19:17:59.030Z,17.57
2022-08-09T19:20:33.894Z,17.52
2022-08-09T19:23:02.607Z,17.46
2022-08-09T19:26:00.861Z,17.42
2022-08-09T19:28:28.587Z,17.35
2022-08-09T19:30:57.132Z,17.30
2022-08-09T19:33:25.323Z,17.26
2022-08-09T19:35:57.594Z,17.20
2022-08-09T19:38:27.890Z,17.15
2022-08-09T19:41:00.410Z,17.09
2022-08-09T19:43:57.935Z,17.03
2022-08-09T19:46:17.751Z,16.96
2022-08-09T19:50:08.985Z,16.90
2022-08-09T19:51:55.708Z,16.85
2022-08-09T19:54:25.244Z,16.79
2022-08-09T19:56:54.728Z,16.73
2022-08-09T19:59:58.308Z,16.68
2022-08-09T20:02:18.325Z,16.62
2022-08-09T20:05:02.444Z,16.57
2022-08-09T20:07:57.111Z,16.52
2022-08-09T20:10:36.684Z,16.46
2022-08-09T20:13:08.488Z,16.42
2022-08-09T20:16:38.493Z,16.38
2022-08-09T20:18:27.777Z,16.34
2022-08-09T20:20:57.567Z,16.29
2022-08-09T20:23:38.792Z,16.26
2022-08-09T20:26:10.224Z,16.25
2022-08-09T20:28:49.557Z,16.23
2022-08-09T20:31:18.238Z,16.22
2022-08-09T20:33:58.189Z,16.20
2022-08-09T20:36:27.489Z,16.17
2022-08-09T20:39:29.154Z,16.14
2022-08-09T20:41:44.128Z,16.10
2022-08-09T20:44:14.799Z,16.06
2022-08-09T20:46:44.909Z,16.02
2022-08-09T20:49:14.084Z,16.00
2022-08-09T20:51:50.739Z,15.98
2022-08-09T20:54:19.267Z,15.95
2022-08-09T20:56:49.777Z,15.92
2022-08-09T20:59:50.023Z,15.89
2022-08-09T21:02:18.466Z,15.84
2022-08-09T21:05:51.265Z,15.81
2022-08-09T21:07:40.477Z,15.76
2022-08-09T21:10:11.582Z,15.73
2022-08-09T21:12:40.063Z,15.70
2022-08-09T21:15:12.482Z,15.66
2022-08-09T21:18:25.899Z,15.62
2022-08-09T21:20:31.731Z,15.58
2022-08-09T21:23:00.923Z,15.54
2022-08-09T21:25:55.924Z,15.51
2022-08-09T21:28:33.260Z,15.45
2022-08-09T21:31:17.499Z,15.41
2022-08-09T21:33:52.850Z,15.38
2022-08-09T21:36:25.799Z,15.37
2022-08-09T21:38:59.306Z,15.36
2022-08-09T21:42:05.711Z,15.35
2022-08-09T21:44:33.206Z,15.33
2022-08-09T21:47:07.376Z,15.32
2022-08-09T21:49:43.050Z,15.30
2022-08-09T21:52:14.970Z,15.28
2022-08-09T21:54:59.342Z,15.26
2022-08-09T21:57:39.586Z,15.25
2022-08-09T22:00:32.680Z,15.24
2022-08-09T22:03:05.560Z,15.22
2022-08-09T22:05:37.563Z,15.20
2022-08-09T22:08:16.344Z,15.18
2022-08-09T22:11:49.205Z,15.15
2022-08-09T22:13:35.518Z,15.12
2022-08-09T22:16:08.606Z,15.08
2022-08-09T22:18:38.653Z,15.07
2022-08-09T22:21:45.126Z,15.04
2022-08-09T22:24:21.089Z,15.00
2022-08-09T22:26:53.790Z,14.96
2022-08-09T22:29:28.834Z,14.92
2022-08-09T22:32:01.027Z,14.88
2022-08-09T22:34:29.155Z,14.83
2022-08-09T22:36:58.822Z,14.79
2022-08-09T22:39:55.679Z,14.76
2022-08-09T22:42:22.438Z,14.72
2022-08-09T22:48:04.771Z,14.65
2022-08-09T22:48:11.356Z,14.58
2022-08-09T22:50:32.752Z,14.54
2022-08-09T22:53:03.741Z,14.49
2022-08-09T22:56:06.665Z,14.47
2022-08-09T22:58:32.628Z,14.43
2022-08-09T23:01:03.895Z,14.40
2022-08-09T23:04:03.651Z,14.36
2022-08-09T23:06:35.229Z,14.32
2022-08-09T23:09:07.560Z,14.28
2022-08-09T23:11:35.725Z,14.23
2022-08-09T23:14:09.796Z,14.20
2022-08-09T23:16:38.824Z,14.16
2022-08-09T23:19:06.845Z,14.14
2022-08-09T23:21:35.712Z,14.10
2022-08-09T23:24:07.157Z,14.08
2022-08-09T23:26:36.841Z,14.05
2022-08-09T23:29:06.859Z,14.02
2022-08-09T23:31:35.544Z,14.00
2022-08-09T23:34:04.234Z,13.97
2022-08-09T23:36:34.046Z,13.94
2022-08-09T23:39:03.976Z,13.90
2022-08-09T23:41:32.120Z,13.86
2022-08-09T23:44:01.938Z,13.84
2022-08-09T23:46:30.628Z,13.81
2022-08-09T23:49:00.025Z,13.78
2022-08-09T23:51:28.765Z,13.76
2022-08-09T23:54:02.932Z,13.74
2022-08-09T23:56:53.581Z,13.71
2022-08-09T23:59:22.719Z,13.68
